sensor_id;sensor_type;location;lat;lon;timestamp;P1;P2;P0
33264;PMS5003;31404;53.974;-1.086;2022-08-04T00:00:35;6;5;
33264;PMS5003;31404;53.974;-1.086;2022-08-04T00:05:41;8;8;
33264;PMS5003;31404;53.974;-1.086;2022-08-04T00:10:36;7;7;
33264;PMS5003;31404;53.974;-1.086;2022-08-04T00:15:36;6;6;
33264;PMS5003;31404;53.974;-1.086;2022-08-04T00:20:37;7;6;
33264;PMS5003;31404;53.974;-1.086;2022-08-04T00:25:37;10;7;
33264;PMS5003;31404;53.974;-1.086;2022-08-04T00:30:36;6;6;
33264;PMS5003;31404;53.974;-1.086;2022-08-04T00:35:34;5;5;
33264;PMS5003;31404;53.974;-1.086;2022-08-04T00:40:39;6;6;
33264;PMS5003;31404;53.974;-1.086;2022-08-04T00:50:39;5;3;
33264;PMS5003;31404;53.974;-1.086;2022-08-04T01:00:39;4;4;
33264;PMS5003;31404;53.974;-1.086;2022-08-04T01:05:39;7;5;
33264;PMS5003;31404;53.974;-1.086;2022-08-04T01:10:40;4;4;
33264;PMS5003;31404;53.974;-1.086;2022-08-04T01:15:38;8;6;
33264;PMS5003;31404;53.974;-1.086;2022-08-04T01:20:39;2;2;
33264;PMS5003;31404;53.974;-1.086;2022-08-04T01:30:37;5;5;
33264;PMS5003;31404;53.974;-1.086;2022-08-04T01:35:35;6;5;
33264;PMS5003;31404;53.974;-1.086;2022-08-04T01:40:36;5;5;
33264;PMS5003;31404;53.974;-1.086;2022-08-04T01:45:36;5;5;
33264;PMS5003;31404;53.974;-1.086;2022-08-04T01:50:35;8;7;
33264;PMS5003;31404;53.974;-1.086;2022-08-04T01:55:35;4;4;
33264;PMS5003;31404;53.974;-1.086;2022-08-04T02:00:36;7;5;
33264;PMS5003;31404;53.974;-1.086;2022-08-04T02:05:37;5;5;
33264;PMS5003;31404;53.974;-1.086;2022-08-04T02:15:38;5;5;
33264;PMS5003;31404;53.974;-1.086;2022-08-04T02:20:36;8;8;
33264;PMS5003;31404;53.974;-1.086;2022-08-04T02:25:36;7;7;
33264;PMS5003;31404;53.974;-1.086;2022-08-04T02:30:38;4;3;
33264;PMS5003;31404;53.974;-1.086;2022-08-04T02:35:35;7;7;
33264;PMS5003;31404;53.974;-1.086;2022-08-04T02:40:36;6;5;
33264;PMS5003;31404;53.974;-1.086;2022-08-04T02:45:36;4;4;
33264;PMS5003;31404;53.974;-1.086;2022-08-04T02:50:37;8;7;
33264;PMS5003;31404;53.974;-1.086;2022-08-04T02:55:36;7;6;
33264;PMS5003;31404;53.974;-1.086;2022-08-04T03:00:36;3;3;
33264;PMS5003;31404;53.974;-1.086;2022-08-04T03:05:38;6;6;
33264;PMS5003;31404;53.974;-1.086;2022-08-04T03:30:38;6;6;
33264;PMS5003;31404;53.974;-1.086;2022-08-04T03:55:40;5;5;
33264;PMS5003;31404;53.974;-1.086;2022-08-04T04:00:36;5;5;
33264;PMS5003;31404;53.974;-1.086;2022-08-04T04:25:35;7;6;
33264;PMS5003;31404;53.974;-1.086;2022-08-04T04:30:39;7;7;
33264;PMS5003;31404;53.974;-1.086;2022-08-04T04:35:40;4;4;
33264;PMS5003;31404;53.974;-1.086;2022-08-04T04:40:41;5;5;
33264;PMS5003;31404;53.974;-1.086;2022-08-04T04:45:39;7;7;
33264;PMS5003;31404;53.974;-1.086;2022-08-04T04:50:38;9;7;
33264;PMS5003;31404;53.974;-1.086;2022-08-04T04:55:39;9;7;
33264;PMS5003;31404;53.974;-1.086;2022-08-04T05:00:40;6;6;
33264;PMS5003;31404;53.974;-1.086;2022-08-04T05:05:39;12;9;
33264;PMS5003;31404;53.974;-1.086;2022-08-04T05:15:36;7;5;
33264;PMS5003;31404;53.974;-1.086;2022-08-04T05:20:37;8;7;
33264;PMS5003;31404;53.974;-1.086;2022-08-04T05:25:38;11;10;
33264;PMS5003;31404;53.974;-1.086;2022-08-04T05:30:40;7;7;
33264;PMS5003;31404;53.974;-1.086;2022-08-04T05:35:39;8;7;
33264;PMS5003;31404;53.974;-1.086;2022-08-04T05:40:35;8;6;
33264;PMS5003;31404;53.974;-1.086;2022-08-04T05:45:37;9;9;
33264;PMS5003;31404;53.974;-1.086;2022-08-04T05:50:37;11;8;
33264;PMS5003;31404;53.974;-1.086;2022-08-04T05:55:37;6;4;
33264;PMS5003;31404;53.974;-1.086;2022-08-04T06:00:36;9;7;
33264;PMS5003;31404;53.974;-1.086;2022-08-04T06:05:37;7;6;
33264;PMS5003;31404;53.974;-1.086;2022-08-04T06:10:36;4;4;
33264;PMS5003;31404;53.974;-1.086;2022-08-04T06:15:38;7;6;
33264;PMS5003;31404;53.974;-1.086;2022-08-04T06:20:38;5;5;
33264;PMS5003;31404;53.974;-1.086;2022-08-04T06:25:45;7;6;
33264;PMS5003;31404;53.974;-1.086;2022-08-04T06:30:35;5;5;
33264;PMS5003;31404;53.974;-1.086;2022-08-04T06:35:36;4;4;
33264;PMS5003;31404;53.974;-1.086;2022-08-04T06:40:35;7;5;
33264;PMS5003;31404;53.974;-1.086;2022-08-04T06:45:38;3;3;
33264;PMS5003;31404;53.974;-1.086;2022-08-04T06:50:38;9;7;
33264;PMS5003;31404;53.974;-1.086;2022-08-04T06:55:35;5;4;
33264;PMS5003;31404;53.974;-1.086;2022-08-04T07:00:38;5;2;
33264;PMS5003;31404;53.974;-1.086;2022-08-04T07:05:36;2;2;
33264;PMS5003;31404;53.974;-1.086;2022-08-04T07:10:34;1;1;
33264;PMS5003;31404;53.974;-1.086;2022-08-04T07:15:37;3;3;
33264;PMS5003;31404;53.974;-1.086;2022-08-04T07:20:35;6;3;
33264;PMS5003;31404;53.974;-1.086;2022-08-04T07:25:36;2;2;
33264;PMS5003;31404;53.974;-1.086;2022-08-04T07:30:35;2;2;
33264;PMS5003;31404;53.974;-1.086;2022-08-04T07:35:37;2;2;
33264;PMS5003;31404;53.974;-1.086;2022-08-04T07:40:37;4;2;
33264;PMS5003;31404;53.974;-1.086;2022-08-04T07:45:36;1;1;
33264;PMS5003;31404;53.974;-1.086;2022-08-04T07:50:37;2;2;
33264;PMS5003;31404;53.974;-1.086;2022-08-04T07:55:36;2;2;
33264;PMS5003;31404;53.974;-1.086;2022-08-04T08:00:34;1;1;
33264;PMS5003;31404;53.974;-1.086;2022-08-04T08:05:32;2;2;
33264;PMS5003;31404;53.974;-1.086;2022-08-04T08:10:35;2;2;
33264;PMS5003;31404;53.974;-1.086;2022-08-04T08:15:34;3;3;
33264;PMS5003;31404;53.974;-1.086;2022-08-04T08:20:36;2;2;
33264;PMS5003;31404;53.974;-1.086;2022-08-04T08:25:37;1;1;
33264;PMS5003;31404;53.974;-1.086;2022-08-04T08:30:37;1;1;
33264;PMS5003;31404;53.974;-1.086;2022-08-04T08:40:39;1;1;
33264;PMS5003;31404;53.974;-1.086;2022-08-04T08:55:37;1;1;
33264;PMS5003;31404;53.974;-1.086;2022-08-04T09:00:40;1;1;
33264;PMS5003;31404;53.974;-1.086;2022-08-04T09:10:38;2;2;
33264;PMS5003;31404;53.974;-1.086;2022-08-04T09:15:36;2;0;
33264;PMS5003;31404;53.974;-1.086;2022-08-04T09:20:36;1;1;
33264;PMS5003;31404;53.974;-1.086;2022-08-04T09:25:38;2;2;
33264;PMS5003;31404;53.974;-1.086;2022-08-04T09:30:38;1;1;
33264;PMS5003;31404;53.974;-1.086;2022-08-04T09:35:39;0;0;
33264;PMS5003;31404;53.974;-1.086;2022-08-04T09:40:36;0;0;
33264;PMS5003;31404;53.974;-1.086;2022-08-04T09:45:40;0;0;
33264;PMS5003;31404;53.974;-1.086;2022-08-04T09:50:37;0;0;
33264;PMS5003;31404;53.974;-1.086;2022-08-04T10:00:44;0;0;
33264;PMS5003;31404;53.974;-1.086;2022-08-04T10:05:38;1;1;
33264;PMS5003;31404;53.974;-1.086;2022-08-04T10:10:35;0;0;
33264;PMS5003;31404;53.974;-1.086;2022-08-04T10:15:39;1;1;
33264;PMS5003;31404;53.974;-1.086;2022-08-04T10:25:41;1;0;
33264;PMS5003;31404;53.974;-1.086;2022-08-04T10:30:35;0;0;
33264;PMS5003;31404;53.974;-1.086;2022-08-04T10:35:36;1;1;
33264;PMS5003;31404;53.974;-1.086;2022-08-04T10:40:38;2;1;
33264;PMS5003;31404;53.974;-1.086;2022-08-04T10:45:38;1;1;
33264;PMS5003;31404;53.974;-1.086;2022-08-04T10:50:39;0;0;
33264;PMS5003;31404;53.974;-1.086;2022-08-04T10:55:49;2;0;
33264;PMS5003;31404;53.974;-1.086;2022-08-04T11:00:38;0;0;
33264;PMS5003;31404;53.974;-1.086;2022-08-04T11:05:38;0;0;
33264;PMS5003;31404;53.974;-1.086;2022-08-04T11:10:36;0;0;
33264;PMS5003;31404;53.974;-1.086;2022-08-04T11:15:35;0;0;
33264;PMS5003;31404;53.974;-1.086;2022-08-04T11:20:36;0;0;
33264;PMS5003;31404;53.974;-1.086;2022-08-04T11:30:35;0;0;
33264;PMS5003;31404;53.974;-1.086;2022-08-04T11:35:41;0;0;
33264;PMS5003;31404;53.974;-1.086;2022-08-04T11:40:36;0;0;
33264;PMS5003;31404;53.974;-1.086;2022-08-04T11:45:37;0;0;
33264;PMS5003;31404;53.974;-1.086;2022-08-04T11:50:38;0;0;
33264;PMS5003;31404;53.974;-1.086;2022-08-04T11:55:34;0;0;
33264;PMS5003;31404;53.974;-1.086;2022-08-04T12:00:40;0;0;
33264;PMS5003;31404;53.974;-1.086;2022-08-04T12:05:40;0;0;
33264;PMS5003;31404;53.974;-1.086;2022-08-04T12:10:40;0;0;
33264;PMS5003;31404;53.974;-1.086;2022-08-04T12:15:38;0;0;
33264;PMS5003;31404;53.974;-1.086;2022-08-04T12:20:41;0;0;
33264;PMS5003;31404;53.974;-1.086;2022-08-04T12:25:39;0;0;
33264;PMS5003;31404;53.974;-1.086;2022-08-04T12:30:39;0;0;
33264;PMS5003;31404;53.974;-1.086;2022-08-04T12:35:38;2;0;
33264;PMS5003;31404;53.974;-1.086;2022-08-04T12:40:37;3;3;
33264;PMS5003;31404;53.974;-1.086;2022-08-04T12:50:38;0;0;
33264;PMS5003;31404;53.974;-1.086;2022-08-04T12:55:37;1;1;
33264;PMS5003;31404;53.974;-1.086;2022-08-04T13:00:37;0;0;
33264;PMS5003;31404;53.974;-1.086;2022-08-04T13:05:36;0;0;
33264;PMS5003;31404;53.974;-1.086;2022-08-04T13:10:38;1;1;
33264;PMS5003;31404;53.974;-1.086;2022-08-04T13:15:38;1;1;
33264;PMS5003;31404;53.974;-1.086;2022-08-04T13:20:37;1;1;
33264;PMS5003;31404;53.974;-1.086;2022-08-04T13:25:39;1;1;
33264;PMS5003;31404;53.974;-1.086;2022-08-04T13:30:37;1;1;
33264;PMS5003;31404;53.974;-1.086;2022-08-04T13:40:36;0;0;
33264;PMS5003;31404;53.974;-1.086;2022-08-04T13:45:36;0;0;
33264;PMS5003;31404;53.974;-1.086;2022-08-04T13:50:38;2;0;
33264;PMS5003;31404;53.974;-1.086;2022-08-04T13:55:38;0;0;
33264;PMS5003;31404;53.974;-1.086;2022-08-04T14:00:42;1;1;
33264;PMS5003;31404;53.974;-1.086;2022-08-04T14:05:37;1;1;
33264;PMS5003;31404;53.974;-1.086;2022-08-04T14:10:35;1;1;
33264;PMS5003;31404;53.974;-1.086;2022-08-04T14:15:37;1;1;
33264;PMS5003;31404;53.974;-1.086;2022-08-04T14:20:34;0;0;
33264;PMS5003;31404;53.974;-1.086;2022-08-04T14:25:36;0;0;
33264;PMS5003;31404;53.974;-1.086;2022-08-04T14:30:34;1;1;
33264;PMS5003;31404;53.974;-1.086;2022-08-04T14:35:36;0;0;
33264;PMS5003;31404;53.974;-1.086;2022-08-04T14:45:35;1;1;
33264;PMS5003;31404;53.974;-1.086;2022-08-04T14:50:36;1;1;
33264;PMS5003;31404;53.974;-1.086;2022-08-04T14:55:37;1;1;
33264;PMS5003;31404;53.974;-1.086;2022-08-04T15:00:38;0;0;
33264;PMS5003;31404;53.974;-1.086;2022-08-04T15:05:38;1;1;
33264;PMS5003;31404;53.974;-1.086;2022-08-04T15:10:36;1;1;
33264;PMS5003;31404;53.974;-1.086;2022-08-04T15:15:37;2;0;
33264;PMS5003;31404;53.974;-1.086;2022-08-04T15:20:34;1;1;
33264;PMS5003;31404;53.974;-1.086;2022-08-04T15:25:34;0;0;
33264;PMS5003;31404;53.974;-1.086;2022-08-04T15:30:36;0;0;
33264;PMS5003;31404;53.974;-1.086;2022-08-04T15:35:36;1;1;
33264;PMS5003;31404;53.974;-1.086;2022-08-04T15:40:35;2;1;
33264;PMS5003;31404;53.974;-1.086;2022-08-04T15:50:37;1;1;
33264;PMS5003;31404;53.974;-1.086;2022-08-04T15:55:37;1;1;
33264;PMS5003;31404;53.974;-1.086;2022-08-04T16:05:34;0;0;
33264;PMS5003;31404;53.974;-1.086;2022-08-04T16:10:38;1;1;
33264;PMS5003;31404;53.974;-1.086;2022-08-04T16:15:38;1;1;
33264;PMS5003;31404;53.974;-1.086;2022-08-04T16:20:37;0;0;
33264;PMS5003;31404;53.974;-1.086;2022-08-04T16:35:36;1;1;
33264;PMS5003;31404;53.974;-1.086;2022-08-04T16:40:36;7;7;
33264;PMS5003;31404;53.974;-1.086;2022-08-04T16:45:38;1;1;
33264;PMS5003;31404;53.974;-1.086;2022-08-04T16:55:36;1;1;
33264;PMS5003;31404;53.974;-1.086;2022-08-04T17:00:36;1;1;
33264;PMS5003;31404;53.974;-1.086;2022-08-04T17:05:35;3;3;
33264;PMS5003;31404;53.974;-1.086;2022-08-04T17:10:37;1;1;
33264;PMS5003;31404;53.974;-1.086;2022-08-04T17:15:37;3;3;
33264;PMS5003;31404;53.974;-1.086;2022-08-04T17:20:39;3;3;
33264;PMS5003;31404;53.974;-1.086;2022-08-04T17:25:37;1;1;
33264;PMS5003;31404;53.974;-1.086;2022-08-04T17:30:29;2;2;
33264;PMS5003;31404;53.974;-1.086;2022-08-04T17:35:38;3;2;
33264;PMS5003;31404;53.974;-1.086;2022-08-04T17:45:35;4;1;
33264;PMS5003;31404;53.974;-1.086;2022-08-04T17:50:36;2;2;
33264;PMS5003;31404;53.974;-1.086;2022-08-04T18:00:36;1;1;
33264;PMS5003;31404;53.974;-1.086;2022-08-04T18:05:37;3;3;
33264;PMS5003;31404;53.974;-1.086;2022-08-04T18:10:38;2;2;
33264;PMS5003;31404;53.974;-1.086;2022-08-04T18:15:39;1;1;
33264;PMS5003;31404;53.974;-1.086;2022-08-04T18:20:36;2;2;
33264;PMS5003;31404;53.974;-1.086;2022-08-04T18:25:35;1;1;
33264;PMS5003;31404;53.974;-1.086;2022-08-04T18:30:37;2;2;
33264;PMS5003;31404;53.974;-1.086;2022-08-04T18:35:37;3;3;
33264;PMS5003;31404;53.974;-1.086;2022-08-04T18:40:36;3;1;
33264;PMS5003;31404;53.974;-1.086;2022-08-04T18:45:36;2;2;
33264;PMS5003;31404;53.974;-1.086;2022-08-04T18:50:36;1;1;
33264;PMS5003;31404;53.974;-1.086;2022-08-04T18:55:35;2;2;
33264;PMS5003;31404;53.974;-1.086;2022-08-04T19:00:35;1;1;
33264;PMS5003;31404;53.974;-1.086;2022-08-04T19:05:36;2;2;
33264;PMS5003;31404;53.974;-1.086;2022-08-04T19:10:34;3;1;
33264;PMS5003;31404;53.974;-1.086;2022-08-04T19:15:37;2;0;
33264;PMS5003;31404;53.974;-1.086;2022-08-04T19:20:36;1;1;
33264;PMS5003;31404;53.974;-1.086;2022-08-04T19:25:37;1;1;
33264;PMS5003;31404;53.974;-1.086;2022-08-04T19:30:35;4;1;
33264;PMS5003;31404;53.974;-1.086;2022-08-04T19:35:35;2;2;
33264;PMS5003;31404;53.974;-1.086;2022-08-04T19:40:37;3;1;
33264;PMS5003;31404;53.974;-1.086;2022-08-04T19:45:36;1;1;
33264;PMS5003;31404;53.974;-1.086;2022-08-04T19:50:37;2;2;
33264;PMS5003;31404;53.974;-1.086;2022-08-04T19:55:35;2;2;
33264;PMS5003;31404;53.974;-1.086;2022-08-04T20:00:36;3;2;
33264;PMS5003;31404;53.974;-1.086;2022-08-04T20:05:35;2;2;
33264;PMS5003;31404;53.974;-1.086;2022-08-04T20:10:37;2;2;
33264;PMS5003;31404;53.974;-1.086;2022-08-04T20:15:36;3;3;
33264;PMS5003;31404;53.974;-1.086;2022-08-04T20:20:35;6;3;
33264;PMS5003;31404;53.974;-1.086;2022-08-04T20:25:34;4;3;
33264;PMS5003;31404;53.974;-1.086;2022-08-04T20:30:35;5;2;
33264;PMS5003;31404;53.974;-1.086;2022-08-04T20:35:36;1;1;
33264;PMS5003;31404;53.974;-1.086;2022-08-04T20:40:35;5;3;
33264;PMS5003;31404;53.974;-1.086;2022-08-04T20:45:36;2;2;
33264;PMS5003;31404;53.974;-1.086;2022-08-04T20:50:35;3;3;
33264;PMS5003;31404;53.974;-1.086;2022-08-04T20:55:37;1;1;
33264;PMS5003;31404;53.974;-1.086;2022-08-04T21:00:36;1;1;
33264;PMS5003;31404;53.974;-1.086;2022-08-04T21:05:37;2;2;
33264;PMS5003;31404;53.974;-1.086;2022-08-04T21:10:35;2;2;
33264;PMS5003;31404;53.974;-1.086;2022-08-04T21:15:37;3;3;
33264;PMS5003;31404;53.974;-1.086;2022-08-04T21:20:37;4;3;
33264;PMS5003;31404;53.974;-1.086;2022-08-04T21:25:38;4;4;
33264;PMS5003;31404;53.974;-1.086;2022-08-04T21:30:35;2;2;
33264;PMS5003;31404;53.974;-1.086;2022-08-04T21:35:37;4;3;
33264;PMS5003;31404;53.974;-1.086;2022-08-04T21:40:37;2;2;
33264;PMS5003;31404;53.974;-1.086;2022-08-04T21:50:36;0;0;
33264;PMS5003;31404;53.974;-1.086;2022-08-04T21:55:37;6;3;
33264;PMS5003;31404;53.974;-1.086;2022-08-04T22:00:36;3;2;
33264;PMS5003;31404;53.974;-1.086;2022-08-04T22:05:38;1;1;
33264;PMS5003;31404;53.974;-1.086;2022-08-04T22:10:37;3;3;
33264;PMS5003;31404;53.974;-1.086;2022-08-04T22:15:34;12;11;
33264;PMS5003;31404;53.974;-1.086;2022-08-04T22:20:37;6;6;
33264;PMS5003;31404;53.974;-1.086;2022-08-04T22:25:37;4;4;
33264;PMS5003;31404;53.974;-1.086;2022-08-04T22:30:35;8;7;
33264;PMS5003;31404;53.974;-1.086;2022-08-04T22:35:37;6;6;
33264;PMS5003;31404;53.974;-1.086;2022-08-04T22:40:37;3;3;
33264;PMS5003;31404;53.974;-1.086;2022-08-04T22:50:38;5;5;
33264;PMS5003;31404;53.974;-1.086;2022-08-04T22:55:38;3;1;
33264;PMS5003;31404;53.974;-1.086;2022-08-04T23:00:37;3;2;
33264;PMS5003;31404;53.974;-1.086;2022-08-04T23:05:39;2;2;
33264;PMS5003;31404;53.974;-1.086;2022-08-04T23:10:39;1;1;
33264;PMS5003;31404;53.974;-1.086;2022-08-04T23:15:38;4;4;
33264;PMS5003;31404;53.974;-1.086;2022-08-04T23:20:39;4;4;
33264;PMS5003;31404;53.974;-1.086;2022-08-04T23:25:36;3;3;
33264;PMS5003;31404;53.974;-1.086;2022-08-04T23:30:37;2;2;
33264;PMS5003;31404;53.974;-1.086;2022-08-04T23:35:37;0;0;
33264;PMS5003;31404;53.974;-1.086;2022-08-04T23:40:37;2;2;
33264;PMS5003;31404;53.974;-1.086;2022-08-04T23:45:36;2;2;
33264;PMS5003;31404;53.974;-1.086;2022-08-04T23:50:38;5;2;
33264;PMS5003;31404;53.974;-1.086;2022-08-04T23:55:37;2;2;
